createdAt,value
2017-06-14T00:01:12.672Z,19.40
2017-06-14T00:03:39.201Z,19.30
2017-06-14T00:06:05.784Z,19.30
2017-06-14T00:08:32.239Z,19.40
2017-06-14T00:10:58.672Z,19.40
2017-06-14T00:13:25.107Z,19.50
2017-06-14T00:15:51.686Z,19.50
2017-06-14T00:18:18.429Z,19.50
2017-06-14T00:20:44.850Z,19.50
2017-06-14T00:23:11.320Z,19.50
2017-06-14T00:25:38.496Z,19.40
2017-06-14T00:28:05.106Z,19.40
2017-06-14T00:30:32.319Z,19.30
2017-06-14T00:32:58.723Z,19.30
2017-06-14T00:35:25.217Z,19.20
2017-06-14T00:37:52.408Z,19.10
2017-06-14T00:40:18.905Z,19.10
2017-06-14T00:42:46.307Z,19.20
2017-06-14T00:45:12.793Z,19.20
2017-06-14T00:47:40.014Z,19.30
2017-06-14T00:50:06.451Z,19.30
2017-06-14T00:52:32.878Z,19.20
2017-06-14T00:54:59.295Z,19.30
2017-06-14T00:57:25.731Z,19.30
2017-06-14T00:59:52.208Z,19.30
2017-06-14T01:02:19.547Z,19.40
2017-06-14T01:04:45.956Z,19.40
2017-06-14T01:07:12.393Z,19.20
2017-06-14T01:09:39.146Z,19.00
2017-06-14T01:12:05.579Z,18.80
2017-06-14T01:14:32.110Z,19.10
2017-06-14T01:16:58.978Z,19.10
2017-06-14T01:19:26.840Z,19.10
2017-06-14T01:21:54.185Z,19.10
2017-06-14T01:24:21.338Z,18.90
2017-06-14T01:26:48.534Z,18.80
2017-06-14T01:29:14.967Z,18.80
2017-06-14T01:31:41.393Z,18.90
2017-06-14T01:34:07.794Z,18.80
2017-06-14T01:36:34.968Z,18.90
2017-06-14T01:39:02.123Z,18.90
2017-06-14T01:41:28.601Z,18.90
2017-06-14T01:43:55.061Z,18.90
2017-06-14T01:46:22.436Z,18.90
2017-06-14T01:48:48.878Z,18.90
2017-06-14T01:51:15.370Z,18.80
2017-06-14T01:53:41.799Z,18.60
2017-06-14T01:56:08.955Z,18.80
2017-06-14T01:58:35.428Z,18.80
2017-06-14T02:01:01.902Z,18.70
2017-06-14T02:03:28.432Z,18.80
2017-06-14T02:05:54.885Z,18.70
2017-06-14T02:08:22.083Z,18.70
2017-06-14T02:10:48.548Z,18.70
2017-06-14T02:13:15.033Z,18.70
2017-06-14T02:15:41.483Z,18.60
2017-06-14T02:18:07.885Z,18.60
2017-06-14T02:20:35.104Z,18.60
2017-06-14T02:23:01.839Z,18.60
2017-06-14T02:25:28.337Z,18.60
2017-06-14T02:27:54.825Z,18.60
2017-06-14T02:30:21.287Z,18.50
2017-06-14T02:32:47.849Z,18.60
2017-06-14T02:35:14.325Z,18.50
2017-06-14T02:37:40.771Z,18.60
2017-06-14T02:40:07.936Z,18.60
2017-06-14T02:42:35.164Z,18.40
2017-06-14T02:45:01.602Z,18.40
2017-06-14T02:47:28.758Z,18.50
2017-06-14T02:49:56.136Z,18.50
2017-06-14T02:52:22.547Z,18.40
2017-06-14T02:54:49.730Z,18.60
2017-06-14T02:57:16.201Z,18.50
2017-06-14T02:59:42.622Z,18.50
2017-06-14T03:02:09.022Z,18.40
2017-06-14T03:04:35.451Z,18.40
2017-06-14T03:07:01.930Z,18.40
2017-06-14T03:09:28.500Z,18.50
2017-06-14T03:11:55.067Z,18.60
2017-06-14T03:14:21.487Z,18.60
2017-06-14T03:16:47.956Z,18.40
2017-06-14T03:19:15.333Z,18.20
2017-06-14T03:21:41.811Z,18.50
2017-06-14T03:24:08.306Z,18.50
2017-06-14T03:26:34.767Z,18.60
2017-06-14T03:29:02.034Z,18.50
2017-06-14T03:31:28.501Z,18.50
2017-06-14T03:33:54.963Z,18.50
2017-06-14T03:36:22.230Z,18.60
2017-06-14T03:38:48.683Z,18.60
2017-06-14T03:41:15.159Z,18.30
2017-06-14T03:43:41.896Z,18.30
2017-06-14T03:46:08.338Z,18.60
2017-06-14T03:48:34.815Z,18.80
2017-06-14T03:51:01.253Z,18.90
2017-06-14T03:53:27.664Z,19.00
2017-06-14T03:55:54.115Z,19.10
2017-06-14T03:58:20.546Z,19.20
2017-06-14T04:00:47.121Z,19.30
2017-06-14T04:03:13.680Z,19.20
2017-06-14T04:05:40.183Z,19.30
2017-06-14T04:08:06.633Z,19.40
2017-06-14T04:10:33.118Z,19.50
2017-06-14T04:12:59.585Z,19.50
2017-06-14T04:15:26.103Z,19.50
2017-06-14T04:17:52.558Z,19.50
2017-06-14T04:20:19.310Z,19.50
2017-06-14T04:22:45.965Z,19.60
2017-06-14T04:25:12.419Z,19.50
2017-06-14T04:27:39.581Z,19.70
2017-06-14T04:30:06.003Z,19.70
2017-06-14T04:32:32.490Z,19.60
2017-06-14T04:34:58.892Z,19.70
2017-06-14T04:37:25.395Z,19.60
2017-06-14T04:39:51.839Z,19.50
2017-06-14T04:42:18.318Z,19.60
2017-06-14T04:44:44.905Z,19.70
2017-06-14T04:47:11.695Z,19.60
2017-06-14T04:49:38.157Z,19.60
2017-06-14T04:52:04.574Z,19.80
2017-06-14T04:54:31.003Z,19.90
2017-06-14T04:56:57.462Z,19.80
2017-06-14T04:59:24.678Z,19.50
2017-06-14T05:01:51.182Z,19.50
2017-06-14T05:04:17.619Z,19.70
2017-06-14T05:06:44.017Z,19.50
2017-06-14T05:09:11.219Z,19.80
2017-06-14T05:11:37.675Z,19.70
2017-06-14T05:14:04.137Z,19.80
2017-06-14T05:16:31.358Z,19.80
2017-06-14T05:18:57.793Z,19.80
2017-06-14T05:21:24.287Z,19.90
2017-06-14T05:23:50.754Z,20.00
2017-06-14T05:26:17.766Z,19.90
2017-06-14T05:28:44.259Z,19.80
2017-06-14T05:31:11.662Z,20.00
2017-06-14T05:33:38.127Z,19.90
2017-06-14T05:36:04.799Z,19.70
2017-06-14T05:38:31.425Z,19.60
2017-06-14T05:40:59.125Z,19.60
2017-06-14T05:43:25.620Z,19.60
2017-06-14T05:45:52.885Z,19.60
2017-06-14T05:48:19.310Z,19.60
2017-06-14T05:50:46.495Z,19.70
2017-06-14T05:53:12.940Z,19.70
2017-06-14T05:55:39.867Z,19.80
2017-06-14T05:58:06.438Z,19.80
2017-06-14T06:00:32.917Z,19.70
2017-06-14T06:02:59.339Z,19.80
2017-06-14T06:05:26.587Z,19.80
2017-06-14T06:07:53.824Z,19.80
2017-06-14T06:10:20.374Z,19.80
2017-06-14T06:12:47.543Z,19.90
2017-06-14T06:15:14.027Z,19.90
2017-06-14T06:17:40.490Z,20.00
2017-06-14T06:20:07.728Z,19.90
2017-06-14T06:22:34.187Z,19.90
2017-06-14T06:25:01.610Z,20.00
2017-06-14T06:27:28.177Z,20.00
2017-06-14T06:29:55.457Z,20.20
2017-06-14T06:32:22.116Z,20.20
2017-06-14T06:34:48.937Z,20.30
2017-06-14T06:37:15.475Z,20.40
2017-06-14T06:39:42.054Z,20.30
2017-06-14T06:42:08.607Z,20.30
2017-06-14T06:44:35.127Z,20.20
2017-06-14T06:47:01.614Z,20.30
2017-06-14T06:49:28.377Z,20.40
2017-06-14T06:52:05.916Z,20.40
2017-06-14T06:54:41.860Z,20.50
2017-06-14T06:57:22.110Z,20.40
2017-06-14T06:59:56.952Z,20.60
2017-06-14T07:02:24.113Z,20.70
2017-06-14T07:04:51.542Z,21.00
2017-06-14T07:07:18.521Z,21.10
2017-06-14T07:09:45.462Z,21.20
2017-06-14T07:12:12.367Z,21.30
2017-06-14T07:14:39.000Z,21.40
2017-06-14T07:17:05.634Z,21.40
2017-06-14T07:19:32.715Z,21.60
2017-06-14T07:21:59.824Z,21.70
2017-06-14T07:24:26.327Z,21.90
2017-06-14T07:26:52.821Z,21.80
2017-06-14T07:29:19.746Z,21.80
2017-06-14T07:31:46.251Z,21.60
2017-06-14T07:34:12.772Z,21.50
2017-06-14T07:36:39.446Z,21.60
2017-06-14T07:39:05.959Z,22.00
2017-06-14T07:41:32.623Z,22.20
2017-06-14T07:43:59.157Z,22.00
2017-06-14T07:46:25.644Z,21.80
2017-06-14T07:48:52.128Z,22.20
2017-06-14T07:51:18.890Z,22.10
2017-06-14T07:53:45.532Z,22.10
2017-06-14T07:56:12.791Z,21.90
2017-06-14T07:58:40.059Z,22.20
2017-06-14T08:01:06.570Z,22.20
2017-06-14T08:03:33.108Z,22.50
2017-06-14T08:06:00.355Z,22.80
2017-06-14T08:08:27.652Z,22.90
2017-06-14T08:10:54.126Z,22.80
2017-06-14T08:13:20.624Z,23.00
2017-06-14T08:15:47.135Z,23.00
2017-06-14T08:18:13.614Z,23.20
2017-06-14T08:20:40.072Z,23.20
2017-06-14T08:23:06.603Z,23.20
2017-06-14T08:25:33.189Z,23.70
2017-06-14T08:28:00.418Z,23.80
2017-06-14T08:30:26.883Z,23.90
2017-06-14T08:32:53.328Z,24.30
2017-06-14T08:35:19.827Z,24.10
2017-06-14T08:37:46.497Z,24.20
2017-06-14T08:40:12.984Z,24.50
2017-06-14T08:42:40.214Z,24.50
2017-06-14T08:45:06.932Z,24.50
2017-06-14T08:47:33.407Z,24.80
2017-06-14T08:49:59.831Z,25.20
2017-06-14T08:52:26.466Z,25.10
2017-06-14T08:54:59.895Z,25.20
2017-06-14T08:57:26.434Z,25.40
2017-06-14T08:59:52.888Z,25.10
2017-06-14T09:02:19.597Z,25.60
2017-06-14T09:04:46.449Z,26.00
2017-06-14T09:07:13.074Z,25.80
2017-06-14T09:09:39.516Z,26.20
2017-06-14T09:12:06.033Z,26.60
2017-06-14T09:14:32.511Z,26.80
2017-06-14T09:16:58.973Z,27.20
2017-06-14T09:19:25.503Z,26.70
2017-06-14T09:21:51.963Z,27.00
2017-06-14T09:24:19.312Z,26.90
2017-06-14T09:26:50.015Z,27.20
2017-06-14T09:29:16.851Z,27.20
2017-06-14T09:31:43.282Z,27.30
2017-06-14T09:34:09.726Z,27.50
2017-06-14T09:36:36.135Z,27.90
2017-06-14T09:39:02.600Z,27.90
2017-06-14T09:41:29.046Z,28.10
2017-06-14T09:43:56.198Z,28.80
2017-06-14T09:46:23.378Z,29.00
2017-06-14T09:48:49.853Z,28.90
2017-06-14T09:51:16.242Z,29.50
2017-06-14T09:53:42.658Z,30.00
2017-06-14T09:56:09.143Z,31.10
2017-06-14T09:58:36.596Z,33.60
2017-06-14T10:01:03.001Z,38.00
2017-06-14T10:03:29.472Z,42.10
2017-06-14T10:05:55.936Z,45.30
2017-06-14T10:08:22.384Z,47.40
2017-06-14T10:10:48.904Z,48.20
2017-06-14T10:13:15.354Z,47.60
2017-06-14T10:15:42.772Z,45.50
2017-06-14T10:18:09.243Z,45.00
2017-06-14T10:20:35.669Z,49.90
2017-06-14T10:23:02.197Z,51.60
2017-06-14T10:25:28.753Z,52.40
2017-06-14T10:27:55.212Z,53.90
2017-06-14T10:30:21.728Z,49.50
2017-06-14T10:32:48.236Z,51.00
2017-06-14T10:35:14.746Z,50.30
2017-06-14T10:37:41.168Z,53.80
2017-06-14T10:40:07.734Z,55.80
2017-06-14T10:42:34.902Z,50.90
2017-06-14T10:45:01.332Z,50.80
2017-06-14T10:47:27.789Z,46.50
2017-06-14T10:49:54.293Z,49.00
2017-06-14T10:52:20.695Z,52.90
2017-06-14T10:54:47.130Z,54.50
2017-06-14T10:57:13.653Z,55.30
2017-06-14T10:59:40.071Z,53.20
2017-06-14T11:02:06.563Z,55.00
2017-06-14T11:04:32.971Z,55.30
2017-06-14T11:07:00.168Z,56.00
2017-06-14T11:09:26.688Z,55.90
2017-06-14T11:11:53.177Z,54.40
2017-06-14T11:14:19.659Z,55.60
2017-06-14T11:16:46.119Z,56.30
2017-06-14T11:19:12.604Z,48.30
2017-06-14T11:21:39.052Z,41.60
2017-06-14T11:24:05.552Z,49.50
2017-06-14T11:26:32.054Z,54.00
2017-06-14T11:28:58.557Z,56.00
2017-06-14T11:31:25.016Z,56.50
2017-06-14T11:33:51.460Z,51.10
2017-06-14T11:36:17.951Z,53.60
2017-06-14T11:38:44.502Z,55.60
2017-06-14T11:41:11.269Z,56.50
2017-06-14T11:43:37.712Z,57.20
2017-06-14T11:46:04.232Z,57.10
2017-06-14T11:48:30.806Z,55.60
2017-06-14T11:50:58.225Z,56.20
2017-06-14T11:53:24.765Z,56.20
2017-06-14T11:55:51.190Z,56.50
2017-06-14T11:58:17.872Z,56.90
2017-06-14T12:00:46.382Z,57.60
2017-06-14T12:03:12.808Z,57.60
2017-06-14T12:05:39.308Z,56.60
2017-06-14T12:08:06.824Z,54.30
2017-06-14T12:10:33.906Z,54.30
2017-06-14T12:13:00.553Z,53.40
2017-06-14T12:15:26.988Z,54.50
2017-06-14T12:17:54.253Z,54.60
2017-06-14T12:20:21.457Z,55.00
2017-06-14T12:22:47.943Z,55.00
2017-06-14T12:25:15.198Z,53.90
2017-06-14T12:27:41.639Z,53.90
2017-06-14T12:30:08.122Z,54.40
2017-06-14T12:32:34.557Z,53.20
2017-06-14T12:35:01.006Z,48.60
2017-06-14T12:37:27.529Z,50.70
2017-06-14T12:39:54.012Z,49.30
2017-06-14T12:42:20.435Z,49.70
2017-06-14T12:44:47.023Z,44.00
2017-06-14T12:47:13.602Z,47.00
2017-06-14T12:49:40.033Z,49.40
2017-06-14T12:52:06.555Z,49.30
2017-06-14T12:54:32.980Z,48.90
2017-06-14T12:57:00.192Z,48.30
2017-06-14T12:59:26.702Z,48.20
2017-06-14T13:01:53.102Z,48.50
2017-06-14T13:04:20.384Z,47.30
2017-06-14T13:06:46.951Z,47.20
2017-06-14T13:09:13.349Z,43.00
2017-06-14T13:11:40.581Z,39.50
2017-06-14T13:14:07.155Z,37.10
2017-06-14T13:16:33.586Z,35.50
2017-06-14T13:19:00.192Z,35.00
2017-06-14T13:21:27.475Z,33.10
2017-06-14T13:23:53.978Z,33.10
2017-06-14T13:26:21.150Z,32.00
2017-06-14T13:28:47.644Z,32.00
2017-06-14T13:31:14.129Z,31.70
2017-06-14T13:33:40.603Z,31.70
2017-06-14T13:36:07.469Z,31.30
2017-06-14T13:38:33.957Z,31.20
2017-06-14T13:41:00.475Z,30.70
2017-06-14T13:43:27.023Z,30.60
2017-06-14T13:45:54.175Z,30.30
2017-06-14T13:48:20.752Z,29.60
2017-06-14T13:50:48.110Z,29.40
2017-06-14T13:53:14.697Z,29.40
2017-06-14T13:55:41.179Z,29.00
2017-06-14T13:58:08.460Z,28.90
2017-06-14T14:00:41.780Z,28.90
2017-06-14T14:03:15.383Z,29.20
2017-06-14T14:05:41.888Z,29.20
2017-06-14T14:08:08.527Z,29.20
2017-06-14T14:10:35.084Z,29.30
2017-06-14T14:13:01.753Z,29.10
2017-06-14T14:15:28.459Z,29.10
2017-06-14T14:17:54.930Z,28.80
2017-06-14T14:20:22.290Z,28.60
2017-06-14T14:22:48.907Z,28.60
2017-06-14T14:25:15.429Z,28.00
2017-06-14T14:27:41.995Z,27.50
2017-06-14T14:30:10.291Z,28.00
2017-06-14T14:32:37.011Z,27.90
2017-06-14T14:35:03.878Z,27.90
2017-06-14T14:37:32.615Z,27.70
2017-06-14T14:40:02.353Z,27.40
2017-06-14T14:42:29.051Z,27.70
2017-06-14T14:44:55.656Z,28.00
2017-06-14T14:47:22.211Z,27.60
2017-06-14T14:49:48.659Z,27.90
2017-06-14T14:52:15.210Z,27.60
2017-06-14T14:54:41.931Z,27.60
2017-06-14T14:57:09.819Z,28.00
2017-06-14T14:59:36.593Z,28.20
2017-06-14T15:02:03.291Z,28.20
2017-06-14T15:04:30.083Z,28.50
2017-06-14T15:06:56.590Z,28.60
2017-06-14T15:09:24.273Z,27.80
2017-06-14T15:11:51.357Z,27.80
2017-06-14T15:14:17.994Z,28.10
2017-06-14T15:16:45.451Z,28.30
2017-06-14T15:19:12.054Z,28.40
2017-06-14T15:21:38.591Z,28.40
2017-06-14T15:24:05.150Z,28.30
2017-06-14T15:26:32.241Z,28.00
2017-06-14T15:28:59.485Z,30.20
2017-06-14T15:31:26.119Z,30.20
2017-06-14T15:33:52.671Z,32.10
2017-06-14T15:36:19.528Z,29.90
2017-06-14T15:38:46.091Z,29.60
2017-06-14T15:41:12.600Z,28.90
2017-06-14T15:43:39.172Z,28.30
2017-06-14T15:46:05.747Z,28.10
2017-06-14T15:48:32.794Z,27.60
2017-06-14T15:50:59.305Z,27.40
2017-06-14T15:53:26.048Z,27.40
2017-06-14T15:55:52.544Z,27.30
2017-06-14T15:58:19.499Z,27.10
2017-06-14T16:00:47.545Z,27.00
2017-06-14T16:03:15.028Z,27.30
2017-06-14T16:05:41.765Z,27.10
2017-06-14T16:08:08.390Z,27.10
2017-06-14T16:10:34.893Z,27.30
2017-06-14T16:13:01.476Z,27.00
2017-06-14T16:15:28.055Z,26.90
2017-06-14T16:17:54.803Z,26.70
2017-06-14T16:20:28.689Z,26.50
2017-06-14T16:22:55.178Z,26.40
2017-06-14T16:25:21.858Z,26.40
2017-06-14T16:27:48.381Z,26.50
2017-06-14T16:30:15.217Z,26.60
2017-06-14T16:32:42.054Z,26.50
2017-06-14T16:35:08.814Z,26.10
2017-06-14T16:37:35.733Z,26.00
2017-06-14T16:40:04.362Z,26.10
2017-06-14T16:42:31.082Z,26.10
2017-06-14T16:44:57.824Z,26.10
2017-06-14T16:47:24.799Z,26.30
2017-06-14T16:49:52.377Z,26.10
2017-06-14T16:52:19.508Z,25.90
2017-06-14T16:54:46.831Z,25.90
2017-06-14T16:57:13.725Z,25.90
2017-06-14T16:59:40.447Z,25.90
2017-06-14T17:02:07.555Z,25.70
2017-06-14T17:04:34.085Z,25.90
2017-06-14T17:07:02.451Z,25.60
2017-06-14T17:09:28.917Z,25.50
2017-06-14T17:11:55.459Z,25.40
2017-06-14T17:14:23.345Z,25.30
2017-06-14T17:16:49.856Z,25.30
2017-06-14T17:19:16.678Z,25.40
2017-06-14T17:21:43.189Z,25.30
2017-06-14T17:24:09.659Z,25.30
2017-06-14T17:26:36.407Z,25.30
2017-06-14T17:29:02.868Z,25.40
2017-06-14T17:31:29.638Z,25.30
2017-06-14T17:33:56.314Z,25.30
2017-06-14T17:36:23.647Z,25.00
2017-06-14T17:38:50.392Z,25.00
2017-06-14T17:41:16.946Z,24.90
2017-06-14T17:43:43.438Z,24.90
2017-06-14T17:46:16.969Z,24.80
2017-06-14T17:48:43.427Z,24.80
2017-06-14T17:51:10.719Z,24.80
2017-06-14T17:53:37.397Z,24.70
2017-06-14T17:56:03.873Z,24.80
2017-06-14T17:58:31.461Z,24.80
2017-06-14T18:00:58.194Z,24.80
2017-06-14T18:03:24.930Z,24.80
2017-06-14T18:05:51.428Z,24.80
2017-06-14T18:08:18.908Z,24.70
2017-06-14T18:10:45.423Z,24.70
2017-06-14T18:13:14.065Z,24.40
2017-06-14T18:16:26.815Z,24.40
2017-06-14T18:19:49.157Z,24.40
2017-06-14T18:22:18.904Z,24.40
2017-06-14T18:24:46.552Z,24.30
2017-06-14T18:27:15.465Z,24.20
2017-06-14T18:33:04.100Z,24.20
2017-06-14T18:35:32.446Z,24.10
2017-06-14T18:38:00.571Z,24.10
2017-06-14T18:40:28.007Z,24.30
2017-06-14T18:42:55.935Z,23.90
2017-06-14T18:45:23.154Z,23.90
2017-06-14T18:47:50.752Z,24.00
2017-06-14T18:50:17.481Z,23.80
2017-06-14T18:52:44.539Z,23.80
2017-06-14T18:55:11.529Z,23.80
2017-06-14T18:57:39.466Z,23.30
2017-06-14T19:00:07.730Z,23.50
2017-06-14T19:02:34.523Z,23.50
2017-06-14T19:05:01.464Z,23.20
2017-06-14T19:07:29.185Z,23.40
2017-06-14T19:09:57.353Z,23.40
2017-06-14T19:12:25.388Z,23.40
2017-06-14T19:14:53.069Z,23.30
2017-06-14T19:17:19.979Z,23.20
2017-06-14T19:19:46.557Z,23.00
2017-06-14T19:22:13.275Z,22.80
2017-06-14T19:24:39.925Z,22.80
2017-06-14T19:27:07.492Z,22.60
2017-06-14T19:29:34.146Z,22.50
2017-06-14T19:32:00.805Z,22.50
2017-06-14T19:34:27.524Z,22.40
2017-06-14T19:36:54.090Z,22.30
2017-06-14T19:39:22.484Z,22.10
2017-06-14T19:41:49.056Z,22.10
2017-06-14T19:44:15.846Z,22.00
2017-06-14T19:46:42.744Z,22.00
2017-06-14T19:49:09.339Z,22.10
2017-06-14T19:51:35.897Z,22.00
2017-06-14T19:54:02.454Z,21.70
2017-06-14T19:56:28.968Z,21.70
2017-06-14T19:58:55.489Z,21.70
2017-06-14T20:01:22.855Z,21.60
2017-06-14T20:03:49.319Z,21.60
2017-06-14T20:06:15.824Z,21.60
2017-06-14T20:08:42.649Z,21.60
2017-06-14T20:11:09.904Z,21.70
2017-06-14T20:13:36.477Z,21.60
2017-06-14T20:16:03.003Z,21.60
2017-06-14T20:18:29.554Z,21.60
2017-06-14T20:20:56.381Z,21.60
2017-06-14T20:23:22.898Z,21.60
2017-06-14T20:25:49.393Z,21.50
2017-06-14T20:28:15.909Z,21.60
2017-06-14T20:30:42.755Z,21.50
2017-06-14T20:33:09.262Z,21.60
2017-06-14T20:35:35.832Z,21.50
2017-06-14T20:38:02.354Z,21.40
2017-06-14T20:40:28.896Z,21.40
2017-06-14T20:42:55.599Z,21.20
2017-06-14T20:45:22.204Z,21.30
2017-06-14T20:47:48.662Z,21.30
2017-06-14T20:50:15.201Z,21.20
2017-06-14T20:52:41.719Z,21.00
2017-06-14T20:55:08.249Z,21.00
2017-06-14T20:57:34.920Z,21.10
2017-06-14T21:00:01.408Z,21.00
2017-06-14T21:02:27.883Z,21.00
2017-06-14T21:04:54.429Z,21.00
2017-06-14T21:07:21.028Z,21.00
2017-06-14T21:09:48.054Z,21.00
2017-06-14T21:12:18.146Z,21.00
2017-06-14T21:15:14.154Z,21.00
2017-06-14T21:21:04.008Z,21.20
2017-06-14T21:23:31.410Z,20.70
2017-06-14T21:25:59.219Z,20.60
2017-06-14T21:28:26.368Z,20.30
2017-06-14T21:30:54.145Z,20.20
2017-06-14T21:33:21.697Z,20.40
2017-06-14T21:35:48.283Z,20.50
2017-06-14T21:38:16.206Z,20.50
2017-06-14T21:40:50.785Z,20.50
2017-06-14T21:43:24.378Z,20.40
2017-06-14T21:45:52.425Z,20.50
2017-06-14T21:48:39.429Z,20.30
2017-06-14T21:51:14.983Z,20.10
2017-06-14T21:54:31.270Z,20.20
2017-06-14T21:56:58.827Z,20.20
2017-06-14T21:59:25.411Z,20.10
2017-06-14T22:01:51.861Z,20.10
2017-06-14T22:04:18.373Z,20.30
2017-06-14T22:06:45.787Z,20.20
2017-06-14T22:09:12.230Z,20.10
2017-06-14T22:11:38.699Z,20.10
2017-06-14T22:14:05.125Z,20.10
2017-06-14T22:16:34.842Z,20.10
2017-06-14T22:19:01.463Z,20.00
2017-06-14T22:21:27.905Z,19.90
2017-06-14T22:23:54.410Z,19.90
2017-06-14T22:26:20.877Z,19.70
2017-06-14T22:28:47.304Z,19.70
2017-06-14T22:31:13.723Z,19.80
2017-06-14T22:33:40.232Z,19.90
2017-06-14T22:36:06.911Z,20.00
2017-06-14T22:38:33.341Z,20.00
2017-06-14T22:40:59.820Z,19.80
2017-06-14T22:43:26.262Z,19.50
2017-06-14T22:45:52.771Z,19.60
2017-06-14T22:48:20.104Z,19.50
2017-06-14T22:50:46.530Z,19.50
2017-06-14T22:53:12.994Z,19.40
2017-06-14T22:55:40.161Z,19.10
2017-06-14T22:58:06.647Z,19.10
2017-06-14T23:00:33.207Z,19.10
2017-06-14T23:03:07.331Z,19.10
2017-06-14T23:05:33.863Z,19.10
2017-06-14T23:08:00.341Z,19.00
2017-06-14T23:10:26.867Z,18.90
2017-06-14T23:12:53.312Z,18.80
2017-06-14T23:15:19.775Z,18.80
2017-06-14T23:17:46.316Z,18.80
2017-06-14T23:20:12.849Z,18.70
2017-06-14T23:22:40.025Z,18.50
2017-06-14T23:25:06.526Z,18.50
2017-06-14T23:27:33.666Z,18.60
2017-06-14T23:30:00.325Z,18.70
2017-06-14T23:32:26.776Z,18.60
2017-06-14T23:34:53.214Z,18.70
2017-06-14T23:37:19.794Z,18.60
2017-06-14T23:39:46.258Z,18.60
2017-06-14T23:42:12.795Z,18.40
2017-06-14T23:44:39.230Z,18.50
2017-06-14T23:47:05.669Z,18.30
2017-06-14T23:49:39.848Z,18.30
2017-06-14T23:52:06.356Z,18.30
2017-06-14T23:54:32.815Z,18.20
2017-06-14T23:56:59.254Z,18.20
2017-06-14T23:59:25.828Z,18.10
